Tiempo atmosférico en la estación meteorológica de Bello, Teruel (1006 m.)



Fecha
DESCASC
Temp. máxima en grados centígrados (hora)
DESCASC
Temp. mínima en grados centígrados (hora)
DESCASC
Temp. media en grados centígrados
DESCASC
Racha de viento máxima en m/sg (hora)
DESCASC
Velocidad máxima media en intervalos de 10 minutos(hora)
DESCASC
Precipitaciones diarias en mm
DESCASC
Precipitaciones de 00:00 a 06:00 en mm
DESCASC
Precipitaciones de 06:00 a 12:00 en mm
DESCASC
Precipitaciones de 12:00 a 18:00 en mm
DESCASC
Precipitaciones de 18:00 a 24:00 en mm
DESCASC
02-08-2020 27.6 (14:40) 11.3 (07:20) 19.5 12.78 (17:30) 8.61 (17:30) 0 0 0 0 0
01-08-2020 35.2 (16:40) 14.1 (06:20) 24.7 12.5 (20:30) 7.78 (19:30) 0 0 0 0 0
31-07-2020 36.3 (17:40) 14.4 (07:30) 25.3 12.5 (12:20) 7.78 (03:10) -- 0 -- 0 0
30-07-2020 -- (--) -- (--) -- -- (--) -- (--) -- 0 0 -- --
29-07-2020 34 (15:10) 16.2 (00:00) 25.1 12.22 (19:20) 8.89 (19:20) 0 0 0 0 0
28-07-2020 35.7 (14:50) 20.6 (07:40) 28.2 15.56 (17:30) 9.72 (01:00) 0 0 0 0 0
27-07-2020 38.1 (16:30) 19.3 (00:00) 28.7 12.22 (23:30) 8.33 (23:30) 0 0 0 0 0
26-07-2020 33.6 (15:00) 14.7 (00:00) 24.1 10 (16:10) 6.94 (16:10) 0 0 0 0 0
25-07-2020 33.2 (16:50) 12.1 (07:00) 22.7 11.67 (16:10) 6.67 (17:00) 0 0 0 0 0
24-07-2020 29.7 (16:50) 14.9 (00:00) 22.3 9.72 (22:50) 6.39 (20:50) 0 0 0 0 0
23-07-2020 32.7 (16:40) 10.7 (00:00) 21.7 9.17 (12:40) 5.56 (21:20) 3 0 0 0 3
22-07-2020 29.9 (14:20) 15.4 (07:00) 22.6 15.28 (18:30) 9.72 (17:40) 0.6 0.6 0 0 0
21-07-2020 34.7 (14:10) 17.1 (00:00) 25.9 15.28 (00:30) 10 (00:30) 0 0 0 0 0
20-07-2020 35.2 (16:30) 14.4 (07:00) 24.8 12.22 (16:30) 8.06 (23:59) 0 0 0 0 0
19-07-2020 33.9 (17:40) 14.8 (00:00) 24.4 11.67 (18:30) 6.39 (18:30) 0 0 0 0 0
18-07-2020 31.3 (17:30) 7.5 (00:00) 19.4 10.83 (19:30) 5.56 (19:30) 0 0 0 0 0
17-07-2020 27.6 (16:40) 10.2 (00:00) 18.9 11.67 (18:30) 6.94 (19:00) 0 0 0 0 0
16-07-2020 28.5 (16:20) 9.1 (00:00) 18.8 9.17 (18:50) 6.67 (19:00) 0 0 0 0 0
15-07-2020 25.4 (16:10) 6.7 (06:50) 16 10.28 (20:20) 6.67 (19:50) 0 0 0 0 0
14-07-2020 26.1 (15:40) 10.2 (00:00) 18.2 10 (16:20) 6.67 (16:20) 0 0 0 0 0
13-07-2020 28 (16:40) 12 (06:40) 20 11.11 (19:30) 7.22 (20:00) 0 0 0 0 0
12-07-2020 -- (--) -- (--) -- -- (--) -- (--) -- 0 2.4 -- --
11-07-2020 30 (16:30) 12.1 (06:00) 21.1 10 (17:30) 6.39 (18:40) 0 0 0 0 0
10-07-2020 28.4 (15:50) 9.4 (00:00) 18.9 12.5 (18:30) 9.17 (18:10) 0 0 0 0 0
09-07-2020 -- (--) -- (--) -- -- (--) -- (--) -- -- -- -- 4.2
08-07-2020 -- (--) -- (--) -- -- (--) -- (--) -- 0 0 -- --

Gráficas

Temp. máximas Temp. mínimas Temp. medias Precipitaciones Rachas de viento máximas Velocidades máximas media en intervalos de 10 minutos

Datos horarios

Fecha y hora oficial Temperatura (ºC) Velocidad del viento (km/h) Dirección del viento Racha (km/h) Dirección de racha Precipitación (mm) Presión (hPa) Tendencia (hPa) Humedad (%)
2020-08-06 23:00:00 25.5 17 Sur 30 Sur 0 -- -- 55
2020-08-06 22:00:00 25.8 10 Sudeste 24 Sudeste 0 -- -- 37
2020-08-06 21:00:00 29.2 18 Sudeste 31 Este 0 -- -- 33
2020-08-06 20:00:00 31.7 21 Este 32 Este 0 -- -- 31
2020-08-06 19:00:00 32.4 21 Este 33 Este 0 -- -- 32
2020-08-06 18:00:00 34.9 13 Nordeste 28 Nordeste 0 -- -- 29
2020-08-06 17:00:00 34 4 Sudeste 20 Nordeste 0 -- -- 24
2020-08-06 16:00:00 34.1 9 Este 24 Este 0 -- -- 24
2020-08-06 15:00:00 34.2 14 Este 24 Este 0 -- -- 25
2020-08-06 14:00:00 33.6 8 Este 21 Sudeste 0 -- -- 28
2020-08-06 13:00:00 30.7 5 Oeste 18 Sudeste 0 -- -- 37
2020-08-06 12:00:00 29.3 5 Este 14 Sudeste 0 -- -- 43
2020-08-06 11:00:00 27.1 5 Sudeste 12 Sur 0 -- -- 50
2020-08-06 10:00:00 23.9 9 Sudoeste 22 Sudeste 0 -- -- 61
2020-08-06 09:00:00 20.9 12 Sur 18 Sur 0 -- -- 73
2020-08-06 08:00:00 17.1 2 Norte 8 Este 0 -- -- 94
2020-08-06 07:00:00 16.9 3 Este 7 Este 0 -- -- 89
2020-08-06 06:00:00 17.6 3 Sudeste 13 Este 0 -- -- 91
2020-08-06 05:00:00 17.8 7 Nordeste 12 Sudeste 0 -- -- 89
2020-08-06 04:00:00 18.3 2 Este 16 Sur 0 -- -- 82
2020-08-06 03:00:00 19.7 10 Sur 18 Sur 0 -- -- 85
2020-08-06 02:00:00 16.2 3 Norte 8 Este 0 -- -- 66
2020-08-06 01:00:00 17.3 0 Calma 9 Sudoeste 0 -- -- 57
2020-08-06 00:00:00 18.3 5 Sur 10 Sudoeste 0 -- -- 54
2020-08-05 23:00:00 20.3 5 Sur 9 Sudoeste 0 -- -- 47
2020-08-05 22:00:00 22.6 8 Sudeste 17 Este 0 -- -- 42
2020-08-05 21:00:00 26.7 13 Este 32 Este 0 -- -- 34
2020-08-05 20:00:00 29.5 22 Nordeste 31 Este 0 -- -- 29
2020-08-05 19:00:00 31.2 20 Este 32 Este 0 -- -- 28
2020-08-05 18:00:00 32.4 12 Nordeste 26 Nordeste 0 -- -- 25
2020-08-05 17:00:00 32.3 11 Este 25 Nordeste 0 -- -- 24
2020-08-05 16:00:00 32 11 Nordeste 23 Este 0 -- -- 26
2020-08-05 15:00:00 30.6 12 Nordeste 23 Norte 0 -- -- 29
2020-08-05 14:00:00 30.1 14 Nordeste 30 Nordeste 0 -- -- 32
2020-08-05 13:00:00 28.5 6 Nordeste 22 Nordeste 0 -- -- 35
2020-08-05 12:00:00 27.2 7 Nordeste 14 Norte 0 -- -- 39
2020-08-05 11:00:00 24.5 4 Nordeste 12 Este 0 -- -- 48
2020-08-05 10:00:00 20.6 3 Nordeste 6 Norte 0 -- -- 58
2020-08-05 09:00:00 15.9 2 Norte 6 Sudoeste 0 -- -- 71
2020-08-05 08:00:00 11 0 Calma 12 Oeste 0 -- -- 80
2020-08-05 07:00:00 9.8 7 Oeste 9 Sudoeste 0 -- -- 81
2020-08-05 06:00:00 10.2 5 Noroeste 12 Sudoeste 0 -- -- 81
2020-08-05 05:00:00 10.3 5 Sudoeste 10 Sudoeste 0 -- -- 77
2020-08-05 04:00:00 11.2 5 Oeste 9 Sudoeste 0 -- -- 77
2020-08-05 03:00:00 11.1 6 Sudoeste 12 Sudoeste 0 -- -- 75
2020-08-05 02:00:00 12.4 5 Oeste 9 Oeste 0 -- -- 72
2020-08-05 01:00:00 13.4 3 Sudoeste 10 Oeste 0 -- -- 69
2020-08-05 00:00:00 14.8 6 Sur 12 Sur 0 -- -- 65
2020-08-04 23:00:00 16.5 9 Este 15 Este 0 -- -- 61
2020-08-04 22:00:00 18.6 10 Sudeste 23 Este 0 -- -- 54
2020-08-04 21:00:00 21.8 16 Nordeste 32 Este 0 -- -- 46
2020-08-04 20:00:00 24.7 19 Nordeste 30 Este 0 -- -- 38
2020-08-04 19:00:00 26.5 14 Nordeste 26 Este 0 -- -- 32
2020-08-04 18:00:00 27.1 12 Nordeste 30 Este 0 -- -- 30
2020-08-04 17:00:00 26.6 10 Nordeste 21 Nordeste 0 -- -- 29
2020-08-04 16:00:00 25.8 10 Norte 22 Nordeste 0 -- -- 31
2020-08-04 15:00:00 24.7 9 Norte 18 Norte 0 -- -- 34
2020-08-04 14:00:00 23.5 8 Norte 23 Norte 0 -- -- 37
2020-08-04 13:00:00 22.3 13 Nordeste 24 Este 0 -- -- 40
2020-08-04 12:00:00 20.7 10 Norte 21 Norte 0 -- -- 44
2020-08-04 11:00:00 19.3 9 Nordeste 18 Nordeste 0 -- -- 50
2020-08-04 10:00:00 16.6 5 Norte 9 Norte 0 -- -- 61
2020-08-04 09:00:00 13.3 2 Norte 6 Nordeste 0 -- -- 74
2020-08-04 08:00:00 9.3 3 Oeste 8 Oeste 0 -- -- 90
2020-08-04 07:00:00 7.7 5 Oeste 8 Sudoeste 0 -- -- 89
2020-08-04 06:00:00 8.6 0 Calma 8 Oeste 0 -- -- 82
2020-08-04 05:00:00 10.1 8 Oeste 15 Sudoeste 0 -- -- 85
2020-08-04 04:00:00 9.6 11 Oeste 14 Oeste 0 -- -- 85
2020-08-04 03:00:00 11.2 4 Sudeste 12 Sudeste 0 -- -- 79
2020-08-04 02:00:00 11.6 6 Sur 15 Este 0 -- -- 79
2020-08-04 01:00:00 12.9 5 Este 12 Este 0 -- -- 74
2020-08-04 00:00:00 14.4 8 Sudeste 22 Nordeste 0 -- -- 70
2020-08-03 23:00:00 16.3 6 Nordeste 30 Nordeste 0 -- -- 65
2020-08-03 22:00:00 17.7 16 Nordeste 33 Nordeste 0 -- -- 60
2020-08-03 21:00:00 20.1 20 Nordeste 31 Nordeste 0 -- -- 52
2020-08-03 20:00:00 23.7 19 Nordeste 30 Nordeste 0 -- -- 43
2020-08-03 19:00:00 24.9 23 Nordeste 33 Nordeste 0 -- -- 38
2020-08-03 18:00:00 26.7 12 Nordeste 30 Norte 0 -- -- 32
2020-08-03 17:00:00 26.9 13 Norte 32 Nordeste 0 -- -- 32
2020-08-03 16:00:00 26.2 12 Norte 28 Nordeste 0 -- -- 33
2020-08-03 15:00:00 25.8 10 Norte 22 Nordeste 0 -- -- 35
2020-08-03 14:00:00 24.6 13 Noroeste 23 Noroeste 0 -- -- 37
2020-08-03 13:00:00 23 7 Noroeste 18 Norte 0 -- -- 38
2020-08-03 12:00:00 21.3 7 Norte 15 Norte 0 -- -- 46
2020-08-03 11:00:00 19.4 5 Norte 17 Nordeste 0 -- -- 53
2020-08-03 10:00:00 17.6 10 Norte 17 Norte 0 -- -- 62
2020-08-03 09:00:00 15.5 6 Noroeste 13 Oeste 0 -- -- 71
2020-08-03 08:00:00 13.1 7 Oeste 12 Oeste 0 -- -- 78
2020-08-03 07:00:00 12.9 0 Calma 10 Sur 0 -- -- 78
2020-08-03 06:00:00 13.7 6 Sur 13 Este 0 -- -- 76
2020-08-03 05:00:00 13.9 8 Este 15 Nordeste 0 -- -- 75
2020-08-03 04:00:00 13.6 9 Este 14 Este 0 -- -- 79
2020-08-03 03:00:00 13.6 8 Este 16 Este 0 -- -- 80
2020-08-03 02:00:00 13.5 8 Este 15 Este 0 -- -- 80
2020-08-03 01:00:00 14.1 13 Nordeste 27 Nordeste 0 -- -- 78
2020-08-03 00:00:00 14.7 14 Nordeste 30 Este 0 -- -- 75
2020-08-02 23:00:00 15.2 18 Este 32 Nordeste 0 -- -- 75
2020-08-02 22:00:00 16.1 24 Nordeste 41 Nordeste 0 -- -- 72
2020-08-02 21:00:00 17.9 22 Este 40 Nordeste 0 -- -- 66
2020-08-02 20:00:00 19.4 28 Nordeste 42 Nordeste 0 -- -- 61
2020-08-02 19:00:00 22.8 28 Este 41 Este 0 -- -- 52
2020-08-02 18:00:00 25.3 28 Nordeste 46 Este 0 -- -- 47
2020-08-02 17:00:00 26.1 26 Nordeste 43 Nordeste 0 -- -- 45
2020-08-02 16:00:00 27.4 24 Este 40 Nordeste 0 -- -- 42
2020-08-02 15:00:00 27.3 25 Nordeste 37 Este 0 -- -- 42
2020-08-02 14:00:00 27.1 21 Nordeste 31 Nordeste 0 -- -- 43
2020-08-02 13:00:00 26.1 12 Nordeste 23 Este 0 -- -- 47
2020-08-02 12:00:00 24.3 8 Este 17 Este 0 -- -- 52
2020-08-02 11:00:00 21.5 9 Este 21 Este 0 -- -- 63
2020-08-02 10:00:00 19.1 9 Nordeste 17 Nordeste 0 -- -- 72
2020-08-02 09:00:00 16.9 11 Este 15 Este 0 -- -- 82
2020-08-02 08:00:00 13.3 3 Este 5 Nordeste 0 -- -- 91
2020-08-02 07:00:00 11.5 2 Sudoeste 4 Sur 0 -- -- 91
2020-08-02 06:00:00 12.1 3 Sudoeste 9 Sudoeste 0 -- -- 90
2020-08-02 05:00:00 13.4 6 Sudoeste 8 Sudoeste 0 -- -- 90
2020-08-02 04:00:00 13.7 6 Sudeste 13 Este 0 -- -- 88
2020-08-02 03:00:00 14.6 6 Sudeste 22 Este 0 -- -- 87
2020-08-02 02:00:00 15.9 12 Este 26 Este 0 -- -- 85
2020-08-02 01:00:00 16.5 15 Nordeste 26 Nordeste 0 -- -- 83
2020-08-02 00:00:00 17.3 9 Nordeste 36 Este 0 -- -- 79
2020-08-01 23:00:00 18.6 22 Nordeste 37 Nordeste 0 -- -- 73
2020-08-01 22:00:00 20.6 20 Este 40 Nordeste 0 -- -- 66
2020-08-01 21:00:00 23.2 28 Nordeste 45 Nordeste 0 -- -- 57
2020-08-01 20:00:00 27 25 Nordeste 45 Este 0 -- -- 47
2020-08-01 19:00:00 30.5 25 Nordeste 40 Nordeste 0 -- -- 39
2020-08-01 18:00:00 32.9 22 Este 36 Este 0 -- -- 33
2020-08-01 17:00:00 34.9 17 Noroeste 40 Oeste 0 -- -- 17
2020-08-01 16:00:00 35.1 18 Noroeste 39 Noroeste 0 -- -- 15
2020-08-01 15:00:00 34.8 22 Noroeste 45 Oeste 0 -- -- 14
2020-08-01 14:00:00 34.3 25 Oeste 45 Oeste 0 -- -- 13
2020-08-01 13:00:00 33.6 23 Noroeste 39 Noroeste 0 -- -- 17
2020-08-01 12:00:00 31.7 17 Oeste 32 Oeste 0 -- -- 24
2020-08-01 11:00:00 31.3 19 Oeste 30 Oeste 0 -- -- 27
2020-08-01 10:00:00 25.3 4 Norte 8 Nordeste 0 -- -- 40
2020-08-01 09:00:00 20.7 3 Norte 9 Noroeste 0 -- -- 48
2020-08-01 08:00:00 15.5 6 Noroeste 10 Noroeste 0 -- -- 55
2020-08-01 07:00:00 14.3 5 Oeste 10 Oeste 0 -- -- 64
2020-08-01 06:00:00 14.5 2 Sudeste 6 Sudoeste 0 -- -- 66
2020-08-01 05:00:00 15.5 4 Oeste 6 Sudoeste 0 -- -- 68
2020-08-01 04:00:00 17.7 5 Oeste 11 Oeste 0 -- -- 57
2020-08-01 03:00:00 20.8 3 Norte 17 Sur 0 -- -- 49
2020-08-01 02:00:00 21.1 5 Norte 19 Sudoeste 0 -- -- 44
2020-08-01 01:00:00 24.1 9 Sudoeste 27 Sur 0 -- -- 48
2020-08-01 00:00:00 23.2 11 Sudoeste 15 Sudoeste 0 -- -- 46
2020-07-31 23:00:00 23.8 4 Oeste 14 Sudoeste 0 -- -- 32
2020-07-31 22:00:00 25.9 3 Sudoeste 15 Oeste 0 -- -- 28
2020-07-31 21:00:00 32.8 8 Noroeste 17 Noroeste 0 -- -- 20
2020-07-31 20:00:00 35.1 9 Noroeste 22 Oeste 0 -- -- 18
2020-07-31 19:00:00 36 9 Noroeste 29 Oeste 0 -- -- 17
2020-07-31 18:00:00 36.1 14 Oeste 31 Oeste 0 -- -- 17
2020-07-31 17:00:00 35.7 17 Noroeste 37 Oeste 0 -- -- 18
2020-07-31 16:00:00 35.2 20 Oeste 35 Oeste 0 -- -- 20
2020-07-31 15:00:00 34.6 17 Oeste 33 Oeste 0 -- -- 23
2020-07-31 14:00:00 33.5 16 Noroeste 36 Oeste 0 -- -- 25
2020-07-31 13:00:00 32.9 22 Oeste 45 Sudoeste 0 -- -- 27
2020-07-31 12:00:00 32.2 8 Norte 17 Norte 0 -- -- 30
2020-07-31 11:00:00 29.8 8 Nordeste 12 Nordeste 0 -- -- 33
2020-07-31 10:00:00 25.4 2 Nordeste 6 Oeste 0 -- -- 41
2020-07-31 09:00:00 21.7 5 Nordeste 7 Nordeste 0 -- -- 51
2020-07-31 08:00:00 15.5 3 Sur -- -- -- -- -- 67
2020-07-31 07:00:00 14.6 0 Calma 8 Sudoeste 0 -- -- 64
2020-07-31 06:00:00 18.3 5 Noroeste 15 Noroeste 0 -- -- 55
2020-07-31 05:00:00 22.9 9 Sur 30 Sur 0 -- -- 41
2020-07-31 04:00:00 23.1 25 Sur 44 Sur 0 -- -- 40
2020-07-31 03:00:00 22.7 23 Sur 30 Sur 0 -- -- 39
2020-07-31 02:00:00 19.3 4 Oeste 7 Noroeste 0 -- -- 53
2020-07-31 01:00:00 21.2 9 Sudeste 28 Sur 0 -- -- 46
2020-07-31 00:00:00 24.5 15 Sudeste 51 Sudeste 0 -- -- 38
2020-07-30 23:00:00 -- -- -- -- -- -- -- -- --
2020-07-30 22:00:00 -- -- -- -- -- -- -- -- --
2020-07-30 21:00:00 -- -- -- -- -- -- -- -- --
2020-07-30 20:00:00 -- -- -- -- -- -- -- -- --
2020-07-30 19:00:00 -- -- -- -- -- -- -- -- --
2020-07-30 18:00:00 -- -- -- -- -- -- -- -- --
2020-07-30 17:00:00 30.3 20 Este 35 Sudeste 0 -- -- 34
2020-07-30 16:00:00 30.7 17 Sur 48 Sur 0 -- -- 26
2020-07-30 15:00:00 35.9 20 Sudeste 31 Este 0 -- -- 23
2020-07-30 14:00:00 34.9 22 Sudeste 32 Este 0 -- -- 22
2020-07-30 13:00:00 33.2 15 Sudeste 29 Sudeste 0 -- -- 28
2020-07-30 12:00:00 30.5 12 Este 24 Sudeste 0 -- -- 32
2020-07-30 11:00:00 29.3 6 Este 10 Este 0 -- -- 36
2020-07-30 10:00:00 26 4 Sudeste 8 Sudeste 0 -- -- 41
2020-07-30 09:00:00 22.4 4 Norte 14 Sudeste 0 -- -- 52
2020-07-30 08:00:00 20.4 4 Sudeste 13 Sudeste 0 -- -- 56
2020-07-30 07:00:00 20 5 Sudoeste 27 Sur 0 -- -- 56
2020-07-30 06:00:00 20 8 Sur 19 Sudeste 0 -- -- 61
2020-07-30 05:00:00 21 12 Sudeste 27 Sur 0 -- -- 56
2020-07-30 04:00:00 21.8 8 Sudoeste 33 Sur 0 -- -- 57
2020-07-30 03:00:00 21 7 Norte 27 Sudeste 0 -- -- 65
2020-07-30 02:00:00 22.2 22 Sur 38 Sur 0 -- -- 60
2020-07-30 01:00:00 22.6 15 Sur 32 Sur 0 -- -- 59
2020-07-30 00:00:00 23.2 9 Sudeste 17 Sudeste 0 -- -- 57
2020-07-29 23:00:00 24 13 Sudeste 18 Sudeste 0 -- -- 57
2020-07-29 22:00:00 25.3 9 Este 22 Este 0 -- -- 53
2020-07-29 21:00:00 27.2 14 Este 27 Nordeste 0 -- -- 50
2020-07-29 20:00:00 29.2 21 Nordeste 44 Sudeste 0 -- -- 43
2020-07-29 19:00:00 29.5 21 Este 43 Nordeste 0 -- -- 43
2020-07-29 18:00:00 30.6 28 Nordeste 40 Nordeste 0 -- -- 41
2020-07-29 17:00:00 32.2 22 Nordeste 42 Este 0 -- -- 36
2020-07-29 16:00:00 32.9 18 Nordeste 31 Nordeste 0 -- -- 33
2020-07-29 15:00:00 33.4 18 Nordeste 34 Este 0 -- -- 33
2020-07-29 14:00:00 32.7 14 Este 26 Este 0 -- -- 29
2020-07-29 13:00:00 30.7 10 Sudeste 20 Sudeste 0 -- -- 34
2020-07-29 12:00:00 28.7 14 Sur 24 Sudeste 0 -- -- 38
2020-07-29 11:00:00 26.8 12 Sudeste 22 Sur 0 -- -- 41
2020-07-29 10:00:00 22.9 14 Este 23 Este 0 -- -- 62
2020-07-29 09:00:00 20.1 13 Este 19 Este 0 -- -- 76
2020-07-29 08:00:00 17.3 11 Este 17 Este 0 -- -- 87
2020-07-29 07:00:00 16.2 5 Sudeste 17 Este 0 -- -- 85
2020-07-29 06:00:00 17.4 14 Este 21 Este 0 -- -- 85
2020-07-29 05:00:00 18.2 15 Este 23 Este 0 -- -- 82
2020-07-29 04:00:00 18.6 16 Este 23 Este 0 -- -- 81
2020-07-29 03:00:00 18.9 15 Este 24 Este 0 -- -- 80
2020-07-29 02:00:00 19.5 18 Este 30 Este 0 -- -- 78
2020-07-29 01:00:00 20.5 18 Este 29 Este 0 -- -- 74
2020-07-29 00:00:00 21.4 10 Este 33 Nordeste 0 -- -- 71
2020-07-28 23:00:00 23.2 23 Este 36 Este 0 -- -- 65
2020-07-28 22:00:00 25 19 Este 29 Este 0 -- -- 54
2020-07-28 21:00:00 27.2 22 Este 34 Nordeste 0 -- -- 47
2020-07-28 20:00:00 28.9 24 Nordeste 39 Nordeste 0 -- -- 43
2020-07-28 19:00:00 30.6 25 Este 42 Este 0 -- -- 37
2020-07-28 18:00:00 31.1 31 Este 56 Nordeste 0 -- -- 37
2020-07-28 17:00:00 32.1 31 Nordeste 46 Nordeste 0 -- -- 35
2020-07-28 16:00:00 30.7 31 Nordeste 45 Este 0 -- -- 38
2020-07-28 15:00:00 35.5 17 Sudeste 33 Sur 0 -- -- 23
2020-07-28 14:00:00 34.7 13 Este 25 Sudeste 0 -- -- 25
2020-07-28 13:00:00 33 10 Sudeste 44 Sur 0 -- -- 26
2020-07-28 12:00:00 32.1 7 Nordeste 19 Nordeste 0 -- -- 28
2020-07-28 11:00:00 30.5 5 Sur 10 Sudeste 0 -- -- 29
2020-07-28 10:00:00 28.7 3 Este 12 Sur 0 -- -- 32
2020-07-28 09:00:00 25.9 8 Sur 18 Sur 0 -- -- 37
2020-07-28 08:00:00 21.5 4 Sudeste 21 Sudoeste 0 -- -- 48
2020-07-28 07:00:00 21.2 9 Sudoeste 26 Sur 0 -- -- 49
2020-07-28 06:00:00 22.7 19 Sur 29 Sur 0 -- -- 46
2020-07-28 05:00:00 23.5 18 Sur 32 Sur 0 -- -- 45
2020-07-28 04:00:00 23.2 14 Sudeste 23 Sur 0 -- -- 49
2020-07-28 03:00:00 23.5 9 Sudeste 43 Sur 0 -- -- 51
2020-07-28 02:00:00 25.9 34 Sur 48 Sur 0 -- -- 45
2020-07-28 01:00:00 26.4 35 Sur 47 Sur 0 -- -- 46
2020-07-28 00:00:00 27.6 28 Sur 44 Sur 0 -- -- 44
2020-07-27 23:00:00 28.3 23 Sur 33 Sur 0 -- -- 43
2020-07-27 22:00:00 28 12 Sudoeste 17 Oeste 0 -- -- 33
2020-07-27 21:00:00 34 13 Oeste 27 Oeste 0 -- -- 24
2020-07-27 20:00:00 36.2 20 Oeste 38 Oeste 0 -- -- 22
2020-07-27 19:00:00 37.2 22 Oeste 35 Oeste 0 -- -- 21
2020-07-27 18:00:00 37.6 22 Oeste 40 Oeste 0 -- -- 21
2020-07-27 17:00:00 37.9 19 Oeste 40 Oeste 0 -- -- 20
2020-07-27 16:00:00 37.7 19 Oeste 40 Oeste 0 -- -- 21
2020-07-27 15:00:00 37 21 Oeste 38 Oeste 0 -- -- 21
2020-07-27 14:00:00 36.6 19 Oeste 32 Oeste 0 -- -- 22
2020-07-27 13:00:00 35.7 9 Sur 21 Sur 0 -- -- 26
2020-07-27 12:00:00 33.2 7 Sur 22 Sur 0 -- -- 29
2020-07-27 09:00:00 -- -- -- -- -- -- -- -- --
2020-07-27 08:00:00 20.8 15 Sur 24 Sur 0 -- -- 65
2020-07-27 07:00:00 19.3 13 Sur 25 Sur 0 -- -- 74
2020-07-27 06:00:00 20.1 18 Sur 24 Sur 0 -- -- 70
2020-07-27 05:00:00 21 6 Sudeste 17 Sudeste 0 -- -- 66
2020-07-27 04:00:00 20.9 6 Sudeste 28 Sur 0 -- -- 68
2020-07-27 03:00:00 22.3 18 Sur 27 Sur 0 -- -- 65
2020-07-27 02:00:00 21.3 6 Norte 30 Sur 0 -- -- 69
2020-07-27 01:00:00 22.8 21 Sur 32 Sur 0 -- -- 64
2020-07-27 00:00:00 22.7 10 Sur 19 Sur 0 -- -- 62
2020-07-26 23:00:00 22.4 11 Sudeste 17 Sudeste 0 -- -- 54
2020-07-26 22:00:00 24.2 9 Sudeste 18 Este 0 -- -- 49
2020-07-26 21:00:00 28.8 12 Este 27 Este 0 -- -- 39
2020-07-26 20:00:00 31.3 17 Este 31 Este 0 -- -- 34
2020-07-26 19:00:00 32.5 19 Este 33 Este 0 -- -- 30
2020-07-26 18:00:00 33.2 17 Este 31 Este 0 -- -- 29
2020-07-26 17:00:00 33.3 20 Nordeste 36 Nordeste 0 -- -- 29
2020-07-26 16:00:00 33.3 18 Nordeste 30 Este 0 -- -- 28
2020-07-26 15:00:00 33.6 14 Nordeste 27 Nordeste 0 -- -- 27
2020-07-26 14:00:00 31.8 13 Nordeste 21 Nordeste 0 -- -- 29
2020-07-26 13:00:00 28.5 5 Norte 13 Norte 0 -- -- 38
2020-07-26 12:00:00 26.8 6 Nordeste 18 Este 0 -- -- 42
2020-07-26 11:00:00 25.1 8 Este 18 Este 0 -- -- 45
2020-07-26 10:00:00 22.7 11 Este 21 Norte 0 -- -- 49
2020-07-26 09:00:00 20.4 13 Nordeste 20 Nordeste 0 -- -- 56
2020-07-26 08:00:00 17.1 9 Este 15 Este 0 -- -- 71
2020-07-26 07:00:00 15.4 10 Este 17 Este 0 -- -- 81
2020-07-26 06:00:00 14.8 10 Sudeste 12 Sudeste 0 -- -- 84
2020-07-26 05:00:00 16.3 8 Sudeste 12 Este 0 -- -- 80
2020-07-26 04:00:00 16.5 3 Sudoeste 10 Sudoeste 0 -- -- 79
2020-07-26 03:00:00 17.9 3 Este 17 Norte 0 -- -- 75
2020-07-26 02:00:00 20.4 8 Norte 25 Sur 0 -- -- 67
2020-07-26 01:00:00 21.2 3 Nordeste 15 Sur 0 -- -- 69
2020-07-26 00:00:00 21.6 6 Sur 16 Sur 0 -- -- 62
2020-07-25 23:00:00 22.8 6 Sudoeste 15 Sudeste 0 -- -- 53
2020-07-25 22:00:00 24.1 10 Sudeste 21 Sudeste 0 -- -- 48
2020-07-25 21:00:00 28 15 Sudeste 25 Sudeste 0 -- -- 40
2020-07-25 20:00:00 30.2 18 Este 26 Este 0 -- -- 35
2020-07-25 19:00:00 31 19 Este 29 Este 0 -- -- 33
2020-07-25 18:00:00 31.2 19 Este 35 Nordeste 0 -- -- 32
2020-07-25 17:00:00 31.9 24 Este 42 Norte 0 -- -- 31
2020-07-25 16:00:00 32.9 16 Oeste 39 Oeste 0 -- -- 25
2020-07-25 15:00:00 32 11 Nordeste 27 Nordeste 0 -- -- 32
2020-07-25 14:00:00 30.4 13 Norte 23 Nordeste 0 -- -- 36
2020-07-25 13:00:00 28.6 12 Norte 24 Norte 0 -- -- 40
2020-07-25 12:00:00 27.4 4 Sudeste 14 Sudeste 0 -- -- 40
2020-07-25 11:00:00 24.9 6 Sur 14 Sudeste 0 -- -- 43
2020-07-25 10:00:00 21.6 5 Sur 9 Este 0 -- -- 51
2020-07-25 09:00:00 17.3 2 Sudoeste 5 Sudoeste 0 -- -- 65
2020-07-25 08:00:00 13.8 2 Noroeste 9 Sudoeste 0 -- -- 81
2020-07-25 07:00:00 12.1 5 Oeste 11 Sudoeste 0 -- -- 83
2020-07-25 06:00:00 12.5 7 Sudoeste 12 Sudoeste 0 -- -- 83
2020-07-25 05:00:00 13.1 5 Sudoeste 7 Sudoeste 0 -- -- 80
2020-07-25 04:00:00 14.6 5 Sudeste 17 Sudeste 0 -- -- 77
2020-07-25 03:00:00 15.4 13 Sudeste 17 Sudeste 0 -- -- 76
2020-07-25 02:00:00 16 7 Este 20 Este 0 -- -- 72
2020-07-25 01:00:00 17.6 11 Este 19 Este 0 -- -- 67
2020-07-25 00:00:00 18.6 12 Este 28 Este 0 -- -- 62
2020-07-24 23:00:00 20.1 17 Este 35 Este 0 -- -- 56
2020-07-24 22:00:00 21.9 16 Este 29 Nordeste 0 -- -- 51
2020-07-24 21:00:00 23.8 20 Nordeste 32 Nordeste 0 -- -- 45
2020-07-24 20:00:00 27 20 Este 31 Este 0 -- -- 38
2020-07-24 19:00:00 28.5 18 Este 32 Nordeste 0 -- -- 36
2020-07-24 18:00:00 28.8 21 Este 34 Nordeste 0 -- -- 36
2020-07-24 17:00:00 29.3 17 Este 30 Este 0 -- -- 36
2020-07-24 16:00:00 29 20 Este 33 Este 0 -- -- 36
2020-07-24 15:00:00 28.8 15 Nordeste 27 Nordeste 0 -- -- 37
2020-07-24 14:00:00 27 13 Nordeste 22 Nordeste 0 -- -- 41
2020-07-24 13:00:00 25.5 13 Nordeste 25 Este 0 -- -- 46
2020-07-24 12:00:00 24.1 13 Este 22 Este 0 -- -- 48
2020-07-24 11:00:00 22.1 12 Este 20 Nordeste 0 -- -- 54
2020-07-24 10:00:00 19.2 12 Este 19 Este 0 -- -- 65
2020-07-24 09:00:00 18 9 Este 23 Este 0 -- -- 69
2020-07-24 08:00:00 15.7 14 Este 23 Este 0 -- -- 77
2020-07-24 07:00:00 15.3 14 Este 23 Este 0 -- -- 80
2020-07-24 06:00:00 15.1 15 Este 25 Este 0 -- -- 80
2020-07-24 05:00:00 16.2 10 Este 15 Este 0 -- -- 83
2020-07-24 04:00:00 16.6 2 Sudeste 10 Sudeste 0 -- -- 79
2020-07-24 03:00:00 17.6 8 Sudeste 14 Este 0 -- -- 75
2020-07-24 02:00:00 18.2 7 Sudeste 17 Este 0 -- -- 74
2020-07-24 01:00:00 18.7 6 Este 19 Este 0 -- -- 74
2020-07-24 00:00:00 20 11 Este 28 Sudoeste 3 -- -- 76
2020-07-23 23:00:00 23.8 13 Nordeste 25 Nordeste 0 -- -- 58
2020-07-23 22:00:00 24.2 17 Nordeste 29 Nordeste 0 -- -- 47
2020-07-23 21:00:00 26.2 13 Nordeste 30 Nordeste 0 -- -- 46
2020-07-23 20:00:00 29.5 13 Nordeste 28 Nordeste 0 -- -- 33
2020-07-23 19:00:00 30.5 8 Este 14 Este 0 -- -- 28
2020-07-23 18:00:00 30.9 7 Este 23 Nordeste 0 -- -- 27
2020-07-23 17:00:00 31.7 10 Nordeste 26 Norte 0 -- -- 26
2020-07-23 16:00:00 32.2 9 Noroeste 24 Norte 0 -- -- 25
2020-07-23 15:00:00 31.4 14 Nordeste 23 Nordeste 0 -- -- 26
2020-07-23 14:00:00 30.4 9 Norte 19 Nordeste 0 -- -- 29
2020-07-23 13:00:00 29.2 9 Nordeste 33 Este 0 -- -- 31
2020-07-23 12:00:00 27.8 8 Este 15 Nordeste 0 -- -- 34
2020-07-23 11:00:00 25.8 6 Nordeste 9 Nordeste 0 -- -- 36
2020-07-23 10:00:00 22.5 3 Sudeste 5 Este 0 -- -- 39
2020-07-23 09:00:00 18.3 3 Sudeste 5 Sudeste 0 -- -- 51
2020-07-23 08:00:00 12.9 2 Oeste 6 Oeste 0 -- -- 66
2020-07-23 07:00:00 10.7 4 Oeste 6 Sudoeste 0 -- -- 70
2020-07-23 06:00:00 11.6 4 Oeste 8 Sudoeste 0 -- -- 67
2020-07-23 05:00:00 11.7 0 Calma 9 Nordeste 0 -- -- 67
2020-07-23 04:00:00 13.6 6 Oeste 10 Sudoeste 0 -- -- 58
2020-07-23 03:00:00 13.9 4 Oeste 5 Noroeste 0 -- -- 58
2020-07-23 02:00:00 16.9 5 Oeste 10 Norte 0 -- -- 49
2020-07-23 01:00:00 18.8 5 Norte 20 Sur 0 -- -- 44
2020-07-23 00:00:00 20.8 18 Sur 30 Sur 0 -- -- 39
2020-07-22 23:00:00 22 25 Sur 39 Sur 0 -- -- 38
2020-07-22 22:00:00 23.1 23 Sur 41 Sur 0 -- -- 39
2020-07-22 21:00:00 25.1 24 Sur 37 Sur 0 -- -- 36
2020-07-22 20:00:00 27.2 28 Sur 41 Sur 0 -- -- 30
2020-07-22 19:00:00 28.1 31 Sur 55 Sur 0 -- -- 28
2020-07-22 18:00:00 28.7 32 Sur 47 Sur 0 -- -- 29
2020-07-22 17:00:00 28.5 33 Sur 43 Sur 0 -- -- 22
2020-07-22 16:00:00 27.6 25 Sur 42 Sur 0 -- -- 24
2020-07-22 15:00:00 28.2 27 Sur 45 Sur 0 -- -- 21
2020-07-22 14:00:00 27.1 28 Sur 48 Sur 0 -- -- 19
2020-07-22 13:00:00 27.7 33 Sur 42 Sur 0 -- -- 20
2020-07-22 12:00:00 24.2 20 Sur 42 Sur 0 -- -- 34
2020-07-22 11:00:00 21.7 9 Sudoeste 20 Sudoeste 0 -- -- 50
2020-07-22 10:00:00 17.8 5 Nordeste 21 Nordeste 0 -- -- 76
2020-07-22 09:00:00 17.9 6 Nordeste 16 Oeste 0 -- -- 71
2020-07-22 08:00:00 16.2 4 Norte 10 Sur 0 -- -- 78
2020-07-22 07:00:00 15.4 9 Oeste 11 Sudoeste 0 -- -- 76
2020-07-22 06:00:00 17.1 6 Nordeste 17 Este 0.2 -- -- 81
2020-07-22 05:00:00 17.8 9 Sur 17 Sur 0.4 -- -- 75
2020-07-22 04:00:00 18.6 8 Sudeste 12 Este 0 -- -- 62
2020-07-22 03:00:00 18.9 5 Noroeste 10 Sur 0 -- -- 69
2020-07-22 02:00:00 19.8 8 Sudeste 15 Este 0 -- -- 67
2020-07-22 01:00:00 22 5 Este 30 Este 0 -- -- 62
2020-07-22 00:00:00 23.4 13 Nordeste 36 Sur 0 -- -- 47
2020-07-21 23:00:00 25.1 27 Sur 46 Sur 0 -- -- 42
2020-07-21 22:00:00 26.1 29 Sur 42 Sur 0 -- -- 40
2020-07-21 21:00:00 26.8 25 Sudeste 34 Sudeste 0 -- -- 46
2020-07-21 20:00:00 27.7 18 Este 49 Este 0 -- -- 44
2020-07-21 19:00:00 28.6 35 Este 53 Este 0 -- -- 44
2020-07-21 18:00:00 28.8 26 Nordeste 52 Nordeste 0 -- -- 44
2020-07-21 17:00:00 32.1 17 Nordeste 32 Nordeste 0 -- -- 26
2020-07-21 16:00:00 32.4 18 Sudeste 31 Sudeste 0 -- -- 22
2020-07-21 15:00:00 33.7 21 Sudeste 34 Sur 0 -- -- 22
2020-07-21 14:00:00 34.2 18 Sudeste 32 Sudeste 0 -- -- 24
2020-07-21 13:00:00 32.7 13 Sudeste 24 Este 0 -- -- 30
2020-07-21 12:00:00 30 9 Sur 20 Sur 0 -- -- 34
2020-07-21 11:00:00 27.9 12 Sur 23 Sur 0 -- -- 41
2020-07-21 10:00:00 24.7 16 Sur 27 Sur 0 -- -- 54
2020-07-21 09:00:00 21.7 13 Sur 24 Sur 0 -- -- 62
2020-07-21 08:00:00 18.6 12 Sudeste 17 Sudeste 0 -- -- 76
2020-07-21 07:00:00 17.7 6 Sudeste 23 Sur 0 -- -- 83
2020-07-21 06:00:00 18.5 18 Sur 34 Sur 0 -- -- 83
2020-07-21 05:00:00 18.3 14 Sur 22 Sur 0 -- -- 86
2020-07-21 04:00:00 19.3 7 Sudoeste 32 Sur 0 -- -- 82
2020-07-21 03:00:00 20.5 21 Sur 36 Sudeste 0 -- -- 77
2020-07-21 02:00:00 19.9 10 Nordeste 36 Sur 0 -- -- 81
2020-07-21 01:00:00 21.3 30 Sur 55 Sur 0 -- -- 76
2020-07-21 00:00:00 23 29 Sur 41 Sur 0 -- -- 68
2020-07-20 23:00:00 23 12 Sudeste 21 Sur 0 -- -- 47
2020-07-20 22:00:00 24.5 5 Este 23 Sudeste 0 -- -- 44
2020-07-20 21:00:00 27.6 20 Sudeste 37 Este 0 -- -- 36
2020-07-20 20:00:00 30.3 16 Este 32 Este 0 -- -- 38
2020-07-20 19:00:00 31.8 19 Este 40 Nordeste 0 -- -- 35
2020-07-20 18:00:00 34.3 11 Noroeste 32 Noroeste 0 -- -- 32
2020-07-20 17:00:00 34.6 7 Sudoeste 44 Sudoeste 0 -- -- 17
2020-07-20 16:00:00 34.5 14 Oeste 31 Noroeste 0 -- -- 17
2020-07-20 15:00:00 33.7 16 Oeste 28 Oeste 0 -- -- 19
2020-07-20 14:00:00 32.9 8 Noroeste 39 Sur 0 -- -- 20
2020-07-20 13:00:00 31.3 6 Norte 18 Sudoeste 0 -- -- 28
2020-07-20 12:00:00 30.1 8 Sur 22 Sur 0 -- -- 30
2020-07-20 11:00:00 28 12 Sur 21 Sur 0 -- -- 38
2020-07-20 10:00:00 25.4 14 Sur 17 Sur 0 -- -- 49
2020-07-20 09:00:00 20.8 3 Norte 5 Norte 0 -- -- 67
2020-07-20 08:00:00 16 2 Noroeste 9 Sudoeste 0 -- -- 81
2020-07-20 07:00:00 14.4 8 Sudoeste 9 Sudoeste 0 -- -- 85
2020-07-20 06:00:00 15.3 4 Sudoeste 7 Oeste 0 -- -- 82
2020-07-20 05:00:00 15.9 4 Oeste 6 Oeste 0 -- -- 82
2020-07-20 04:00:00 17 4 Sudoeste 15 Sur 0 -- -- 71
2020-07-20 03:00:00 20.5 9 Noroeste 22 Sudoeste 0 -- -- 61
2020-07-20 02:00:00 20.6 8 Sudoeste 19 Sur 0 -- -- 65
2020-07-20 01:00:00 22.1 18 Sur 24 Sur 0 -- -- 71
2020-07-20 00:00:00 23.3 12 Sur 25 Sudeste 0 -- -- 66
2020-07-19 23:00:00 25.2 21 Sur 28 Sur 0 -- -- 59
2020-07-19 22:00:00 24.7 10 Sudeste 18 Este 0 -- -- 41
2020-07-19 21:00:00 28.1 13 Este 22 Este 0 -- -- 34
2020-07-19 20:00:00 31 17 Este 36 Este 0 -- -- 27
2020-07-19 19:00:00 31.1 18 Este 42 Este 0 -- -- 27
2020-07-19 18:00:00 33.2 13 Norte 28 Nordeste 0 -- -- 23
2020-07-19 17:00:00 32.8 13 Noroeste 30 Noroeste 0 -- -- 23
2020-07-19 16:00:00 33.3 15 Nordeste 29 Nordeste 0 -- -- 21
2020-07-19 15:00:00 32.8 18 Norte 33 Norte 0 -- -- 23
2020-07-19 14:00:00 32.3 15 Nordeste 25 Nordeste 0 -- -- 25
2020-07-19 13:00:00 30.3 12 Nordeste 23 Nordeste 0 -- -- 33
2020-07-19 12:00:00 28.8 11 Nordeste 18 Este 0 -- -- 41
2020-07-19 11:00:00 26.2 5 Norte 10 Norte 0 -- -- 51
2020-07-19 10:00:00 22.8 5 Sudoeste 9 Sudoeste 0 -- -- 61
2020-07-19 09:00:00 19.1 0 Calma 8 Oeste 0 -- -- 77
2020-07-19 08:00:00 17.7 3 Sur 14 Sur 0 -- -- 81
2020-07-19 07:00:00 16.2 3 Nordeste 13 Sudeste 0 -- -- 90
2020-07-19 06:00:00 15.6 11 Sudeste 13 Sudeste 0 -- -- 92
2020-07-19 05:00:00 17.8 6 Noroeste 22 Sur 0 -- -- 81
2020-07-19 04:00:00 18.7 5 Sudeste 14 Sur 0 -- -- 85
2020-07-19 03:00:00 18.8 12 Sudeste 23 Sur 0 -- -- 83
2020-07-19 02:00:00 14.9 4 Este 12 Sudoeste 0 -- -- 63
2020-07-19 01:00:00 15.9 3 Sudoeste 8 Sudeste 0 -- -- 58
2020-07-19 00:00:00 17.6 5 Sur 11 Sur 0 -- -- 51
2020-07-18 23:00:00 18.8 0 Calma 9 Sudoeste 0 -- -- 46
2020-07-18 22:00:00 21.5 7 Sudeste 13 Este 0 -- -- 40
2020-07-18 21:00:00 26.5 11 Este 26 Nordeste 0 -- -- 32
2020-07-18 20:00:00 29 17 Este 39 Nordeste 0 -- -- 29
2020-07-18 19:00:00 30.4 17 Nordeste 26 Nordeste 0 -- -- 25
2020-07-18 18:00:00 31 14 Nordeste 25 Nordeste 0 -- -- 26
2020-07-18 17:00:00 30.7 16 Nordeste 28 Nordeste 0 -- -- 28
2020-07-18 16:00:00 29.9 15 Nordeste 27 Nordeste 0 -- -- 31
2020-07-18 15:00:00 29.3 14 Nordeste 27 Nordeste 0 -- -- 34
2020-07-18 14:00:00 27.8 14 Nordeste 24 Nordeste 0 -- -- 37
2020-07-18 13:00:00 25.9 7 Nordeste 19 Nordeste 0 -- -- 45
2020-07-18 12:00:00 23.7 8 Norte 17 Nordeste 0 -- -- 50
2020-07-18 11:00:00 21.5 4 Norte 10 Norte 0 -- -- 55
2020-07-18 10:00:00 18.9 4 Sudeste 9 Este 0 -- -- 62
2020-07-18 09:00:00 15.3 4 Este 8 Este 0 -- -- 73
2020-07-18 08:00:00 10.2 3 Oeste 6 Oeste 0 -- -- 90
2020-07-18 07:00:00 7.8 4 Oeste 8 Oeste 0 -- -- 90
2020-07-18 06:00:00 8.2 4 Oeste 9 Oeste 0 -- -- 89
2020-07-18 05:00:00 8.8 4 Sudoeste 10 Oeste 0 -- -- 87
2020-07-18 04:00:00 9.4 10 Sudoeste 15 Sudoeste 0 -- -- 87
2020-07-18 03:00:00 10.5 0 Calma 10 Este 0 -- -- 85
2020-07-18 02:00:00 12.4 4 Este 19 Este 0 -- -- 81
2020-07-18 01:00:00 13.5 10 Este 16 Este 0 -- -- 78
2020-07-18 00:00:00 14.5 12 Este 22 Este 0 -- -- 73
2020-07-17 23:00:00 15.5 9 Sudeste 23 Este 0 -- -- 69
2020-07-17 22:00:00 17.6 17 Este 34 Nordeste 0 -- -- 61
2020-07-17 21:00:00 20.6 20 Nordeste 41 Este 0 -- -- 52
2020-07-17 20:00:00 23.7 22 Este 37 Este 0 -- -- 43
2020-07-17 19:00:00 25.6 25 Este 42 Este 0 -- -- 36
2020-07-17 18:00:00 26.8 23 Nordeste 37 Nordeste 0 -- -- 35
2020-07-17 17:00:00 27.5 19 Nordeste 31 Nordeste 0 -- -- 32
2020-07-17 16:00:00 27.2 17 Nordeste 31 Nordeste 0 -- -- 32
2020-07-17 15:00:00 26.5 16 Nordeste 35 Nordeste 0 -- -- 36
2020-07-17 14:00:00 26 15 Nordeste 29 Nordeste 0 -- -- 36
2020-07-17 13:00:00 24.9 12 Nordeste 25 Este 0 -- -- 38
2020-07-17 12:00:00 23.8 7 Sudeste 18 Este 0 -- -- 40
2020-07-17 11:00:00 21.9 8 Nordeste 18 Nordeste 0 -- -- 46
2020-07-17 10:00:00 19.7 4 Norte 8 Nordeste 0 -- -- 53
2020-07-17 09:00:00 16 2 Norte 5 Norte 0 -- -- 66
2020-07-17 08:00:00 12.3 3 Sudoeste 6 Sudoeste 0 -- -- 81
2020-07-17 07:00:00 10.4 6 Oeste 15 Sudoeste 0 -- -- 83
2020-07-17 06:00:00 10.4 4 Oeste 5 Oeste 0 -- -- 82
2020-07-17 05:00:00 11.1 0 Calma 5 Norte 0 -- -- 79
2020-07-17 04:00:00 12.3 0 Calma 7 Sur 0 -- -- 77
2020-07-17 03:00:00 12.6 6 Sudoeste 10 Sur 0 -- -- 77
2020-07-17 02:00:00 13.5 10 Sudeste 15 Sudeste 0 -- -- 77
2020-07-17 01:00:00 14.4 7 Sudeste 15 Este 0 -- -- 73
2020-07-17 00:00:00 17 12 Este 15 Este 0 -- -- 66
2020-07-16 23:00:00 18 5 Este 9 Este 0 -- -- 60
2020-07-16 22:00:00 19.6 8 Este 20 Nordeste 0 -- -- 50
2020-07-16 21:00:00 22.5 15 Este 28 Nordeste 0 -- -- 40
2020-07-16 20:00:00 25.4 20 Este 31 Este 0 -- -- 36
2020-07-16 19:00:00 26.3 24 Este 33 Este 0 -- -- 36
2020-07-16 18:00:00 27.3 18 Nordeste 30 Este 0 -- -- 35
2020-07-16 17:00:00 28.3 19 Este 33 Nordeste 0 -- -- 33
2020-07-16 16:00:00 28.1 13 Norte 24 Norte 0 -- -- 33
2020-07-16 15:00:00 27.9 13 Nordeste 28 Nordeste 0 -- -- 33
2020-07-16 14:00:00 26.9 12 Nordeste 28 Nordeste 0 -- -- 35
2020-07-16 13:00:00 25.8 12 Nordeste 21 Nordeste 0 -- -- 39
2020-07-16 12:00:00 23.6 8 Nordeste -- -- -- -- -- 42
2020-07-16 11:00:00 21.3 5 Noroeste 12 Noroeste 0 -- -- 44
2020-07-16 10:00:00 19.1 4 Nordeste 9 Nordeste 0 -- -- 46
2020-07-16 09:00:00 16.3 3 Norte 6 Nordeste 0 -- -- 58
2020-07-16 08:00:00 11.8 3 Sur 7 Sudoeste 0 -- -- 79
2020-07-16 07:00:00 9.5 4 Nordeste 8 Nordeste 0 -- -- 86
2020-07-16 06:00:00 9.1 4 Sudoeste 9 Sur 0 -- -- 85
2020-07-16 05:00:00 9.6 6 Sudoeste 10 Sudoeste 0 -- -- 84
2020-07-16 04:00:00 10.2 4 Sudoeste 13 Sur 0 -- -- 82
2020-07-16 03:00:00 10.6 10 Sur 13 Sur 0 -- -- 84
2020-07-16 02:00:00 11.3 10 Sur 13 Sur 0 -- -- 81
2020-07-16 01:00:00 12.5 10 Sudeste 15 Sudeste 0 -- -- 77
2020-07-16 00:00:00 13.9 9 Sudeste 21 Este 0 -- -- 71
2020-07-15 23:00:00 15.4 8 Este 22 Este 0 -- -- 67
2020-07-15 22:00:00 16.8 13 Este 29 Nordeste 0 -- -- 62
2020-07-15 21:00:00 19.4 19 Nordeste 37 Nordeste 0 -- -- 54
2020-07-15 20:00:00 21.9 22 Este 35 Este 0 -- -- 49
2020-07-15 19:00:00 23.3 24 Nordeste 36 Nordeste 0 -- -- 46
2020-07-15 18:00:00 24.2 21 Nordeste 37 Nordeste 0 -- -- 43
2020-07-15 17:00:00 24.7 20 Nordeste 31 Este 0 -- -- 41
2020-07-15 16:00:00 25.1 10 Este 28 Nordeste 0 -- -- 39
2020-07-15 15:00:00 24.1 10 Norte 20 Norte 0 -- -- 37
2020-07-15 14:00:00 23 10 Nordeste 28 Este 0 -- -- 42
2020-07-15 13:00:00 21.7 12 Este 35 Norte 0 -- -- 46
2020-07-15 12:00:00 20.3 10 Este 18 Este 0 -- -- 45
2020-07-15 11:00:00 18.5 9 Norte 28 Este 0 -- -- 50
2020-07-15 10:00:00 16.9 8 Nordeste 17 Nordeste 0 -- -- 50
2020-07-15 09:00:00 14.3 7 Este 12 Este 0 -- -- 48
2020-07-15 08:00:00 9.9 4 Sudoeste 7 Sur 0 -- -- 71
2020-07-15 07:00:00 6.8 7 Sudeste 10 Sudeste 0 -- -- 78
2020-07-15 06:00:00 7.6 4 Sudeste 8 Sudeste 0 -- -- 74
2020-07-15 05:00:00 8.5 4 Sudeste 8 Sur 0 -- -- 69
2020-07-15 04:00:00 9.2 5 Sur 13 Sudeste 0 -- -- 64
2020-07-15 03:00:00 10.4 5 Sur 11 Este 0 -- -- 64
2020-07-15 02:00:00 12.1 6 Este 17 Este 0 -- -- 58
2020-07-15 01:00:00 13.7 6 Sudeste 15 Sudeste 0 -- -- 54
2020-07-15 00:00:00 14.4 9 Sudeste 26 Este 0 -- -- 54
2020-07-14 23:00:00 16.4 15 Este 26 Nordeste 0 -- -- 51
2020-07-14 22:00:00 17.8 18 Nordeste 31 Nordeste 0 -- -- 44
2020-07-14 21:00:00 20.2 19 Nordeste 32 Nordeste 0 -- -- 34
2020-07-14 20:00:00 22.7 22 Nordeste 32 Nordeste 0 -- -- 33
2020-07-14 19:00:00 24 23 Este 35 Nordeste 0 -- -- 32
2020-07-14 18:00:00 24.4 21 Nordeste 35 Nordeste 0 -- -- 30
2020-07-14 17:00:00 24.5 23 Nordeste 36 Este 0 -- -- 32
2020-07-14 16:00:00 24.7 18 Nordeste 36 Nordeste 0 -- -- 29
2020-07-14 15:00:00 25.4 14 Norte 24 Nordeste 0 -- -- 29
2020-07-14 14:00:00 24.4 12 Nordeste 24 Este 0 -- -- 33
2020-07-14 13:00:00 22.5 9 Nordeste 21 Sudeste 0 -- -- 36
2020-07-14 12:00:00 20.4 9 Nordeste 17 Este 0 -- -- 36
2020-07-14 11:00:00 19.1 8 Este 16 Este 0 -- -- 36
2020-07-14 10:00:00 16.1 9 Este 13 Este 0 -- -- 42
2020-07-14 09:00:00 15.2 9 Este 13 Este 0 -- -- 47
2020-07-14 08:00:00 11.5 3 Sudeste 6 Sudoeste 0 -- -- 69
2020-07-14 07:00:00 10.5 2 Nordeste 5 Nordeste 0 -- -- 80
2020-07-14 06:00:00 10.4 0 Calma 5 Sudeste 0 -- -- 77
2020-07-14 05:00:00 10.4 5 Sur 6 Sur 0 -- -- 75
2020-07-14 04:00:00 11.3 5 Sur 9 Sudoeste 0 -- -- 73
2020-07-14 03:00:00 13 3 Sudeste 8 Este 0 -- -- 64
2020-07-14 02:00:00 13.7 8 Este 13 Este 0 -- -- 63
2020-07-14 01:00:00 14 8 Este 18 Este 0 -- -- 65
2020-07-14 00:00:00 16 8 Sudeste 18 Este 0 -- -- 56
2020-07-13 23:00:00 17.3 11 Este 32 Este 0 -- -- 53
2020-07-13 22:00:00 19 22 Este 35 Este 0 -- -- 53
2020-07-13 21:00:00 21.7 21 Este 36 Nordeste 0 -- -- 50
2020-07-13 20:00:00 24.6 26 Este 40 Este 0 -- -- 45
2020-07-13 19:00:00 27 21 Este 35 Este 0 -- -- 40
2020-07-13 18:00:00 27.7 18 Este 31 Nordeste 0 -- -- 39
2020-07-13 17:00:00 27.7 16 Este 27 Nordeste 0 -- -- 39
2020-07-13 16:00:00 27.6 12 Nordeste 30 Este 0 -- -- 41
2020-07-13 15:00:00 27.1 15 Este 39 Este 0 -- -- 42
2020-07-13 14:00:00 26.5 13 Nordeste 29 Este 0 -- -- 47
2020-07-13 13:00:00 24.2 10 Nordeste 22 Este 0 -- -- 56
2020-07-13 12:00:00 22.7 9 Nordeste 19 Este 0 -- -- 61
2020-07-13 11:00:00 20.6 11 Este 19 Nordeste 0 -- -- 70
2020-07-13 10:00:00 19 9 Este 17 Este 0 -- -- 75
2020-07-13 09:00:00 17.5 11 Este 15 Este 0 -- -- 83
2020-07-13 08:00:00 12.9 5 Sudeste 8 Sudoeste 0 -- -- 93
2020-07-13 07:00:00 12 6 Sudoeste 14 Sudoeste 0 -- -- 90
2020-07-13 06:00:00 12.7 10 Sudoeste 13 Sudoeste 0 -- -- 89
2020-07-13 05:00:00 13.2 8 Sudoeste 15 Sudoeste 0 -- -- 88
2020-07-13 04:00:00 13.7 6 Oeste 8 Oeste 0 -- -- 86
2020-07-13 03:00:00 14.7 6 Sur 15 Nordeste 0 -- -- 81
2020-07-13 02:00:00 16.4 13 Nordeste 17 Nordeste 0 -- -- 78
2020-07-13 01:00:00 16.3 10 Sur 15 Sudoeste 0 -- -- 77
2020-07-13 00:00:00 17 7 Oeste 13 Sudeste 0 -- -- 71
2020-07-12 23:00:00 16.7 8 Sudeste 14 Este 0 -- -- 73
2020-07-12 22:00:00 18.9 5 Noroeste -- -- -- -- -- 60
2020-07-12 21:00:00 -- -- -- -- -- -- -- -- --
2020-07-12 20:00:00 -- -- -- -- -- -- -- -- --
2020-07-12 19:00:00 -- -- -- -- -- -- -- -- --
2020-07-12 18:00:00 -- -- -- -- -- -- -- -- --
2020-07-12 17:00:00 -- -- -- -- -- -- -- -- --
2020-07-12 16:00:00 -- -- -- -- -- -- -- -- --
2020-07-12 15:00:00 23.2 8 Este 33 Este 0 -- -- 54
2020-07-12 14:00:00 24 19 Este 29 Este 0 -- -- 49
2020-07-12 13:00:00 23 17 Este 24 Nordeste 0 -- -- 58
2020-07-12 12:00:00 18.5 13 Nordeste 24 Noroeste 0 -- -- 78
2020-07-12 11:00:00 19.1 6 Sudoeste 22 Sur 2.4 -- -- 76
2020-07-12 10:00:00 22.5 15 Sur 26 Sur 0 -- -- 48
2020-07-12 09:00:00 20.7 16 Sudeste 22 Sudeste 0 -- -- 57
2020-07-12 08:00:00 17.9 6 Este 15 Sudeste 0 -- -- 67
2020-07-12 07:00:00 16.6 8 Sudeste 16 Este 0 -- -- 74
2020-07-12 06:00:00 16.7 3 Este 15 Sur 0 -- -- 81
2020-07-12 05:00:00 16.8 15 Sudeste 23 Sudeste 0 -- -- 85
2020-07-12 04:00:00 16.5 6 Este 16 Sur 0 -- -- 86
2020-07-12 03:00:00 18.3 15 Sudeste 29 Sudeste 0 -- -- 77
2020-07-12 02:00:00 19.2 20 Sur 30 Sur 0 -- -- 76
2020-07-12 01:00:00 20 20 Sudeste 30 Sudeste 0 -- -- 73
2020-07-12 00:00:00 21.3 19 Sudeste 28 Sur 0 -- -- 69
2020-07-11 23:00:00 21.3 13 Sudeste 23 Sudeste 0 -- -- 65
2020-07-11 22:00:00 23 12 Sudeste 23 Este 0 -- -- 58
2020-07-11 21:00:00 26 19 Este 30 Este 0 -- -- 49
2020-07-11 20:00:00 27.7 19 Este 32 Este 0 -- -- 44
2020-07-11 19:00:00 28.5 23 Este 36 Este 0 -- -- 43
2020-07-11 18:00:00 29.3 23 Este 36 Este 0 -- -- 42
2020-07-11 17:00:00 29.5 23 Nordeste 35 Nordeste 0 -- -- 42
2020-07-11 16:00:00 29.6 11 Nordeste 27 Este 0 -- -- 38
2020-07-11 15:00:00 29.3 15 Este 29 Nordeste 0 -- -- 39
2020-07-11 14:00:00 27.9 15 Este 25 Nordeste 0 -- -- 41
2020-07-11 13:00:00 25.7 12 Nordeste 23 Nordeste 0 -- -- 50
2020-07-11 12:00:00 23.5 9 Este 18 Nordeste 0 -- -- 57
2020-07-11 11:00:00 20.8 9 Este 21 Este 0 -- -- 65
2020-07-11 10:00:00 17.9 10 Este 18 Nordeste 0 -- -- 76
2020-07-11 09:00:00 14.7 14 Este 22 Nordeste 0 -- -- 89
2020-07-11 08:00:00 12.9 13 Este 22 Este 0 -- -- 96
2020-07-11 07:00:00 12.4 13 Este 18 Este 0 -- -- 96
2020-07-11 06:00:00 12.1 9 Este 15 Este 0 -- -- 94
2020-07-11 05:00:00 12.7 12 Este 21 Este 0 -- -- 93
2020-07-11 04:00:00 13 12 Este 22 Este 0 -- -- 93
2020-07-11 03:00:00 13.7 16 Este 26 Este 0 -- -- 91
2020-07-11 02:00:00 14.5 13 Este 24 Este 0 -- -- 88
2020-07-11 01:00:00 15.5 13 Este 30 Este 0 -- -- 85
2020-07-11 00:00:00 16.8 15 Este 25 Este 0 -- -- 80
2020-07-10 23:00:00 18.6 13 Este 28 Nordeste 0 -- -- 76
2020-07-10 22:00:00 20.4 19 Nordeste 31 Nordeste 0 -- -- 69
2020-07-10 21:00:00 23.1 5 Este 20 Este 0 -- -- 53
2020-07-10 20:00:00 24.3 16 Este 36 Sudeste 0 -- -- 49
2020-07-10 19:00:00 24.9 27 Sudeste 45 Sudeste 0 -- -- 46
2020-07-10 18:00:00 25.1 28 Sudeste 40 Sudeste 0 -- -- 50
2020-07-10 17:00:00 26.9 15 Nordeste 27 Nordeste 0 -- -- 48
2020-07-10 16:00:00 28 11 Nordeste 26 Este 0 -- -- 41
2020-07-10 15:00:00 27.4 13 Este 22 Nordeste 0 -- -- 41
2020-07-10 14:00:00 26.1 9 Norte 21 Este 0 -- -- 48
2020-07-10 13:00:00 24.9 12 Nordeste 23 Este 0 -- -- 55
2020-07-10 12:00:00 23.1 9 Este 17 Este 0 -- -- 60
2020-07-10 11:00:00 21.1 12 Este 17 Este 0 -- -- 66
2020-07-10 10:00:00 18.9 11 Este 17 Este 0 -- -- 83
2020-07-10 09:00:00 17.1 7 Este 12 Este 0 -- -- 89
2020-07-10 08:00:00 12.3 4 Sudoeste 9 Sudoeste 0 -- -- 98
2020-07-10 07:00:00 9.5 4 Sudoeste 9 Sudoeste 0 -- -- 96
2020-07-10 06:00:00 10.3 4 Oeste 11 Sudoeste 0 -- -- 96
2020-07-10 05:00:00 10.5 0 Calma 6 Oeste 0 -- -- 93
2020-07-10 04:00:00 11.7 9 Oeste 12 Oeste 0 -- -- 95
2020-07-10 03:00:00 12.1 0 Calma 6 Sur 0 -- -- 94
2020-07-10 02:00:00 13.3 3 Sur 8 Oeste 0 -- -- 90
2020-07-10 01:00:00 14.2 8 Oeste 16 Sudoeste 0 -- -- 92
2020-07-10 00:00:00 15 10 Sur 16 Sudoeste 0 -- -- 90
2020-07-09 23:00:00 15.6 10 Nordeste 44 Oeste 0.2 -- -- 89
2020-07-09 22:00:00 15.5 25 Oeste 66 Oeste 0.8 -- -- 87
2020-07-09 21:00:00 17.3 23 Oeste 50 Oeste 3 -- -- 82
2020-07-09 20:00:00 23.5 10 Noroeste 21 Norte 0 -- -- 53
2020-07-09 19:00:00 25.3 10 Norte 22 Norte 0.2 -- -- 46
2020-07-09 18:00:00 26.3 13 Nordeste 21 Nordeste 0 -- -- 38
2020-07-09 17:00:00 23.6 9 Norte 15 Noroeste 0 -- -- 54
2020-07-09 16:00:00 22 8 Norte 30 Sudeste 0.4 -- -- 64
2020-07-09 15:00:00 -- -- -- -- -- -- -- -- --
2020-07-09 14:00:00 -- -- -- -- -- -- -- -- --
2020-07-09 13:00:00 24.4 10 Sudeste 17 Sudeste 0.2 -- -- 47
2020-07-09 12:00:00 23 5 Sur 21 Sur 0 -- -- 56
2020-07-09 11:00:00 24.5 7 Sudeste 12 Sudeste 0 -- -- 46
2020-07-09 10:00:00 22.9 0 Calma 14 Sur 0 -- -- 56
2020-07-09 09:00:00 20.4 7 Sur 14 Sudeste 0 -- -- 59
2020-07-09 08:00:00 -- -- -- -- -- -- -- -- --
2020-07-09 07:00:00 -- -- -- -- -- -- -- -- --
2020-07-09 06:00:00 -- -- -- -- -- -- -- -- --
2020-07-09 05:00:00 -- -- -- -- -- -- -- -- --
2020-07-09 04:00:00 -- -- -- -- -- -- -- -- --
2020-07-09 03:00:00 -- -- -- -- -- -- -- -- --
2020-07-09 02:00:00 -- -- -- -- -- -- -- -- --
2020-07-09 01:00:00 -- -- -- -- -- -- -- -- --
2020-07-09 00:00:00 -- -- -- -- -- -- -- -- --
2020-07-08 23:00:00 -- -- -- -- -- -- -- -- --
2020-07-08 22:00:00 -- -- -- -- -- -- -- -- --
2020-07-08 21:00:00 -- -- -- -- -- -- -- -- --
2020-07-08 20:00:00 -- -- -- -- -- -- -- -- --
2020-07-08 19:00:00 -- -- -- -- -- -- -- -- --
2020-07-08 18:00:00 -- -- -- -- -- -- -- -- --
2020-07-08 17:00:00 -- -- -- -- -- -- -- -- --
2020-07-08 16:00:00 32.9 9 Sudeste 14 Sudeste 0 -- -- 20
2020-07-08 15:00:00 33.1 8 Sur 21 Sur 0 -- -- 23
2020-07-08 14:00:00 32.5 10 Sur 24 Nordeste 0 -- -- 26
2020-07-08 13:00:00 29.6 10 Este 22 Este 0 -- -- 31
2020-07-08 12:00:00 26.3 9 Norte 44 Oeste 0 -- -- 38
2020-07-08 11:00:00 26.7 30 Oeste 48 Oeste 0 -- -- 41
2020-07-08 10:00:00 23.3 5 Norte 13 Norte 0 -- -- 55
2020-07-08 09:00:00 20.7 7 Norte 28 Oeste 0 -- -- 67
2020-07-08 08:00:00 17.3 5 Sur 10 Sudoeste 0 -- -- 74
2020-07-08 07:00:00 13.3 3 Sur 7 Sudeste 0 -- -- 69
2020-07-08 06:00:00 13.5 0 Calma 5 Sudoeste 0 -- -- 63
2020-07-08 05:00:00 14.3 0 Calma 9 Oeste 0 -- -- 58
2020-07-08 04:00:00 14.4 0 Calma 5 Este 0 -- -- 57
2020-07-08 03:00:00 15 4 Sudeste 10 Sudoeste 0 -- -- 53
2020-07-08 02:00:00 16 5 Sudoeste 10 Este 0 -- -- 48
2020-07-08 01:00:00 18 3 Sudeste 9 Este 0 -- -- 42
2020-07-08 00:00:00 18.1 5 Sur 7 Sudeste 0 -- -- 45